createdAt,value
2022-11-11T00:03:00.261Z,15.60
2022-11-11T00:06:04.230Z,16.02
2022-11-11T00:09:06.554Z,13.23
2022-11-11T00:12:09.162Z,15.03
2022-11-11T00:15:11.489Z,15.32
2022-11-11T00:18:32.328Z,15.65
2022-11-11T00:21:37.150Z,15.07
2022-11-11T00:24:57.912Z,14.80
2022-11-11T00:28:00.092Z,15.90
2022-11-11T00:31:09.974Z,16.75
2022-11-11T00:34:12.152Z,14.68
2022-11-11T00:37:14.349Z,16.48
2022-11-11T00:40:17.140Z,16.03
2022-11-11T00:43:19.219Z,15.00
2022-11-11T00:46:40.260Z,14.70
2022-11-11T00:50:00.858Z,13.65
2022-11-11T00:53:05.322Z,14.77
2022-11-11T00:56:07.579Z,13.33
2022-11-11T00:59:09.809Z,13.73
2022-11-11T01:02:12.148Z,12.27
2022-11-11T01:05:14.488Z,12.05
2022-11-11T01:08:16.618Z,12.13
2022-11-11T01:11:21.832Z,11.83
2022-11-11T01:14:23.985Z,11.40
2022-11-11T01:17:26.165Z,11.45
2022-11-11T01:20:28.408Z,10.63
2022-11-11T01:23:32.166Z,11.35
2022-11-11T01:26:34.384Z,10.30
2022-11-11T01:29:36.499Z,11.00
2022-11-11T01:32:38.620Z,10.93
2022-11-11T01:35:42.450Z,10.15
2022-11-11T01:38:48.509Z,10.73
2022-11-11T01:41:50.681Z,10.77
2022-11-11T01:44:52.787Z,10.20
2022-11-11T01:48:33.800Z,10.68
2022-11-11T01:51:59.278Z,8.65
2022-11-11T01:55:13.549Z,10.02
2022-11-11T01:58:18.335Z,16.83
2022-11-11T02:01:20.548Z,13.37
2022-11-11T02:04:41.389Z,12.40
2022-11-11T02:07:43.755Z,11.15
2022-11-11T02:10:47.240Z,12.90
2022-11-11T02:14:07.765Z,11.60
2022-11-11T02:17:14.091Z,12.47
2022-11-11T02:20:21.243Z,11.30
2022-11-11T02:23:42.417Z,8.77
2022-11-11T02:26:45.415Z,10.02
2022-11-11T02:29:50.917Z,10.47
2022-11-11T02:32:54.599Z,9.13
2022-11-11T02:35:59.512Z,11.05
2022-11-11T02:39:04.989Z,11.35
2022-11-11T02:42:10.489Z,10.57
2022-11-11T02:45:12.972Z,9.40
2022-11-11T02:48:15.101Z,11.00
2022-11-11T02:51:17.564Z,11.35
2022-11-11T02:54:19.669Z,10.52
2022-11-11T02:57:22.699Z,10.90
2022-11-11T03:00:25.714Z,12.03
2022-11-11T03:03:28.261Z,11.00
2022-11-11T03:06:30.896Z,12.07
2022-11-11T03:09:33.077Z,11.75
2022-11-11T03:12:35.217Z,12.20
2022-11-11T03:15:37.604Z,13.23
2022-11-11T03:23:02.049Z,11.65
2022-11-11T03:26:04.093Z,11.38
2022-11-11T03:29:06.527Z,11.63
2022-11-11T03:32:09.748Z,10.73
2022-11-11T03:35:11.764Z,10.57
2022-11-11T03:38:23.551Z,10.90
2022-11-11T03:41:25.594Z,11.15
2022-11-11T03:44:28.665Z,10.02
2022-11-11T03:47:30.704Z,11.47
2022-11-11T03:50:34.765Z,10.60
2022-11-11T03:53:36.747Z,10.45
2022-11-11T03:56:38.902Z,10.43
2022-11-11T03:59:41.137Z,11.18
2022-11-11T04:03:01.634Z,11.47
2022-11-11T04:06:23.170Z,9.27
2022-11-11T04:09:43.841Z,9.40
2022-11-11T04:13:04.535Z,10.85
2022-11-11T04:16:06.765Z,9.82
2022-11-11T04:19:27.730Z,9.53
2022-11-11T04:22:30.009Z,10.30
2022-11-11T04:25:50.268Z,10.80
2022-11-11T04:29:21.661Z,10.20
2022-11-11T04:32:35.832Z,9.90
2022-11-11T04:35:37.845Z,10.37
2022-11-11T04:38:58.125Z,10.13
2022-11-11T04:42:08.853Z,10.75
2022-11-11T04:45:28.376Z,9.98
2022-11-11T04:48:30.332Z,10.63
2022-11-11T04:51:52.281Z,11.50
2022-11-11T04:55:21.476Z,10.17
2022-11-11T04:58:26.043Z,10.98
2022-11-11T05:01:46.542Z,9.63
2022-11-11T05:04:48.508Z,10.48
2022-11-11T05:08:09.674Z,10.17
2022-11-11T05:11:11.792Z,9.47
2022-11-11T05:14:32.479Z,10.25
2022-11-11T05:17:53.211Z,9.80
2022-11-11T05:21:13.912Z,9.30
2022-11-11T05:24:34.836Z,9.97
2022-11-11T05:27:37.044Z,9.60
2022-11-11T05:30:41.780Z,9.38
2022-11-11T05:33:43.772Z,9.75
2022-11-11T05:36:45.790Z,10.73
2022-11-11T05:39:48.090Z,9.20
2022-11-11T05:42:54.251Z,10.20
2022-11-11T05:45:59.653Z,9.82
2022-11-11T05:49:16.629Z,9.35
2022-11-11T05:52:20.411Z,10.45
2022-11-11T05:55:22.426Z,9.53
2022-11-11T05:58:24.498Z,9.13
2022-11-11T06:01:26.778Z,10.88
2022-11-11T06:04:29.180Z,9.85
2022-11-11T06:07:31.741Z,9.00
2022-11-11T06:10:34.066Z,9.43
2022-11-11T06:13:36.246Z,9.90
2022-11-11T06:16:38.334Z,9.10
2022-11-11T06:19:40.297Z,9.60
2022-11-11T06:22:57.442Z,8.85
2022-11-11T06:26:15.339Z,8.83
2022-11-11T06:29:17.341Z,9.03
2022-11-11T06:32:19.290Z,8.68
2022-11-11T06:35:21.420Z,8.65
2022-11-11T06:38:23.487Z,8.57
2022-11-11T06:41:30.974Z,8.17
2022-11-11T06:44:32.945Z,8.33
2022-11-11T06:47:44.576Z,8.70
2022-11-11T06:55:02.241Z,7.37
2022-11-11T06:58:12.435Z,8.27
2022-11-11T07:01:14.994Z,6.73
2022-11-11T07:04:17.272Z,7.57
2022-11-11T07:07:19.413Z,7.25
2022-11-11T07:10:21.977Z,6.70
2022-11-11T07:13:24.353Z,6.73
2022-11-11T07:16:28.574Z,6.87
2022-11-11T07:19:31.198Z,6.32
2022-11-11T07:22:38.205Z,6.37
2022-11-11T07:25:40.410Z,6.37
2022-11-11T07:28:42.469Z,7.07
2022-11-11T07:31:44.915Z,6.60
2022-11-11T07:34:47.100Z,5.28
2022-11-11T07:37:49.463Z,6.15
2022-11-11T07:40:51.834Z,5.87
2022-11-11T07:43:53.825Z,6.53
2022-11-11T07:46:55.914Z,5.50
2022-11-11T07:50:01.769Z,6.20
2022-11-11T07:53:06.724Z,5.85
2022-11-11T07:56:08.955Z,6.97
2022-11-11T07:59:11.037Z,5.30
2022-11-11T08:02:13.970Z,5.70
2022-11-11T08:05:16.747Z,6.28
2022-11-11T08:08:20.957Z,5.60
2022-11-11T08:11:43.432Z,6.00
2022-11-11T08:14:45.503Z,6.00
2022-11-11T08:17:47.584Z,7.20
2022-11-11T08:20:54.672Z,5.93
2022-11-11T08:25:01.591Z,10.35
2022-11-11T08:27:31.342Z,7.18
2022-11-11T08:30:33.671Z,7.30
2022-11-11T08:33:35.861Z,6.30
2022-11-11T08:36:38.208Z,5.43
2022-11-11T08:39:40.218Z,5.68
2022-11-11T08:42:42.346Z,18.45
2022-11-11T08:45:44.775Z,21.33
2022-11-11T08:48:47.920Z,8.20
2022-11-11T08:51:50.104Z,33.92
2022-11-11T08:54:52.674Z,16.98
2022-11-11T08:57:59.740Z,11.82
2022-11-11T09:01:04.481Z,7.20
2022-11-11T09:04:37.740Z,5.60
2022-11-11T09:07:28.989Z,5.35
2022-11-11T09:10:31.363Z,6.32
2022-11-11T09:13:33.611Z,5.45
2022-11-11T09:16:35.735Z,6.93
2022-11-11T09:19:37.976Z,6.43
2022-11-11T09:22:44.317Z,11.80
2022-11-11T09:25:46.633Z,8.25
2022-11-11T09:28:48.942Z,6.20
2022-11-11T09:31:51.277Z,19.27
2022-11-11T09:34:55.564Z,32.63
2022-11-11T09:38:00.003Z,10.15
2022-11-11T09:41:35.830Z,7.62
2022-11-11T09:45:05.733Z,6.60
2022-11-11T09:48:39.047Z,10.83
2022-11-11T09:52:01.053Z,6.40
2022-11-11T09:55:30.681Z,5.60
2022-11-11T09:58:38.687Z,5.25
2022-11-11T10:01:45.335Z,5.93
2022-11-11T10:05:21.635Z,5.50
2022-11-11T10:08:23.995Z,5.40
2022-11-11T10:11:39.938Z,5.20
2022-11-11T10:14:49.568Z,5.53
2022-11-11T10:17:51.654Z,6.37
2022-11-11T10:21:05.822Z,5.78
2022-11-11T10:24:17.361Z,7.87
2022-11-11T10:27:22.294Z,5.82
2022-11-11T10:30:31.660Z,7.65
2022-11-11T10:33:46.497Z,6.07
2022-11-11T10:36:53.773Z,5.90
2022-11-11T10:40:12.760Z,10.13
2022-11-11T10:43:23.615Z,6.18
2022-11-11T10:46:40.442Z,7.18
2022-11-11T10:49:53.686Z,6.22
2022-11-11T10:53:54.542Z,5.97
2022-11-11T10:57:05.846Z,6.33
2022-11-11T11:00:11.825Z,7.07
2022-11-11T11:03:24.351Z,7.37
2022-11-11T11:06:32.106Z,5.93
2022-11-11T11:09:44.232Z,6.05
2022-11-11T11:13:08.002Z,5.73
2022-11-11T11:16:18.084Z,6.10
2022-11-11T11:19:25.837Z,5.72
2022-11-11T11:22:53.044Z,5.72
2022-11-11T11:25:57.624Z,6.12
2022-11-11T11:29:02.241Z,5.77
2022-11-11T11:32:19.670Z,6.62
2022-11-11T11:35:44.272Z,6.75
2022-11-11T11:38:51.068Z,6.00
2022-11-11T11:41:54.399Z,8.15
2022-11-11T11:44:56.828Z,7.17
2022-11-11T11:48:30.893Z,6.18
2022-11-11T11:55:18.378Z,5.22
2022-11-11T11:58:43.877Z,5.53
2022-11-11T12:01:55.935Z,5.77
2022-11-11T12:05:10.790Z,6.20
2022-11-11T12:08:19.111Z,6.35
2022-11-11T12:11:40.172Z,6.18
2022-11-11T12:14:52.708Z,7.07
2022-11-11T12:18:16.891Z,7.70
2022-11-11T12:21:24.283Z,6.87
2022-11-11T12:24:51.368Z,7.53
2022-11-11T12:28:04.783Z,9.05
2022-11-11T12:31:32.743Z,6.70
2022-11-11T12:34:53.755Z,5.93
2022-11-11T12:38:26.803Z,5.95
2022-11-11T12:42:07.918Z,6.80
2022-11-11T12:45:22.128Z,6.60
2022-11-11T12:48:43.107Z,6.37
2022-11-11T12:52:16.230Z,5.73
2022-11-11T12:55:36.457Z,5.75
2022-11-11T12:58:44.289Z,6.32
2022-11-11T13:02:16.547Z,7.22
2022-11-11T13:05:22.565Z,8.25
2022-11-11T13:09:06.160Z,6.70
2022-11-11T13:12:21.450Z,7.43
2022-11-11T13:15:25.799Z,7.35
2022-11-11T13:18:51.604Z,13.93
2022-11-11T13:21:59.429Z,10.60
2022-11-11T13:25:07.785Z,6.43
2022-11-11T13:28:17.795Z,7.12
2022-11-11T13:31:34.452Z,7.70
2022-11-11T13:34:37.448Z,7.72
2022-11-11T13:37:43.641Z,7.40
2022-11-11T13:40:46.865Z,7.13
2022-11-11T13:43:52.211Z,7.22
2022-11-11T13:47:03.457Z,12.40
2022-11-11T13:50:27.769Z,6.53
2022-11-11T13:53:34.283Z,6.50
2022-11-11T13:56:41.837Z,7.17
2022-11-11T14:00:10.063Z,6.05
2022-11-11T14:03:18.385Z,5.82
2022-11-11T14:06:20.477Z,5.70
2022-11-11T14:09:54.401Z,5.10
2022-11-11T14:13:22.015Z,4.97
2022-11-11T14:16:34.498Z,4.80
2022-11-11T14:19:36.743Z,4.47
2022-11-11T14:22:38.944Z,4.10
2022-11-11T14:25:41.173Z,4.55
2022-11-11T14:28:49.294Z,5.90
2022-11-11T14:32:12.839Z,10.73
2022-11-11T14:35:54.024Z,11.55
2022-11-11T14:39:24.065Z,11.43
2022-11-11T14:42:38.013Z,10.85
2022-11-11T14:45:49.466Z,6.07
2022-11-11T14:49:00.250Z,5.93
2022-11-11T14:52:03.722Z,4.68
2022-11-11T14:55:20.815Z,4.65
2022-11-11T14:58:27.247Z,4.20
2022-11-11T15:01:31.391Z,5.50
2022-11-11T15:04:38.784Z,3.90
2022-11-11T15:07:40.866Z,3.70
2022-11-11T15:11:03.681Z,4.82
2022-11-11T15:14:37.973Z,5.30
2022-11-11T15:18:25.612Z,5.43
2022-11-11T15:21:27.709Z,5.45
2022-11-11T15:25:15.176Z,5.00
2022-11-11T15:28:35.570Z,5.90
2022-11-11T15:32:28.429Z,5.13
2022-11-11T15:35:42.104Z,6.03
2022-11-11T15:38:44.837Z,6.22
2022-11-11T15:41:50.505Z,7.40
2022-11-11T15:44:52.850Z,6.10
2022-11-11T15:47:55.093Z,7.07
2022-11-11T15:50:57.410Z,11.67
2022-11-11T15:54:15.808Z,12.90
2022-11-11T15:57:35.234Z,10.75
2022-11-11T16:00:38.272Z,10.30
2022-11-11T16:03:42.474Z,10.43
2022-11-11T16:06:45.347Z,9.40
2022-11-11T16:09:47.895Z,8.57
2022-11-11T16:13:18.585Z,10.90
2022-11-11T16:16:31.185Z,23.27
2022-11-11T16:19:37.442Z,18.27
2022-11-11T16:22:40.755Z,19.80
2022-11-11T16:25:43.301Z,26.80
2022-11-11T16:28:48.595Z,25.75
2022-11-11T16:31:50.913Z,19.08
2022-11-11T16:34:54.459Z,19.73
2022-11-11T16:37:56.973Z,26.90
2022-11-11T16:40:59.665Z,17.37
2022-11-11T16:44:01.921Z,17.05
2022-11-11T16:47:27.799Z,15.93
2022-11-11T16:50:30.408Z,16.20
2022-11-11T16:53:40.883Z,15.20
2022-11-11T16:56:47.163Z,14.13
2022-11-11T16:59:55.395Z,14.63
2022-11-11T17:03:22.957Z,14.45
2022-11-11T17:06:52.262Z,15.83
2022-11-11T17:09:55.887Z,14.03
2022-11-11T17:12:58.003Z,12.32
2022-11-11T17:16:08.102Z,14.93
2022-11-11T17:19:10.556Z,16.75
2022-11-11T17:22:12.920Z,14.60
2022-11-11T17:25:15.379Z,13.73
2022-11-11T17:28:18.187Z,14.07
2022-11-11T17:31:20.503Z,13.23
2022-11-11T17:34:22.930Z,14.27
2022-11-11T17:37:25.102Z,13.70
2022-11-11T17:40:27.905Z,13.40
2022-11-11T17:43:31.660Z,13.20
2022-11-11T17:46:34.438Z,14.18
2022-11-11T17:49:55.726Z,14.35
2022-11-11T17:52:58.635Z,15.30
2022-11-11T17:56:02.101Z,13.73
2022-11-11T17:59:04.686Z,14.15
2022-11-11T18:02:07.644Z,13.27
2022-11-11T18:05:10.530Z,14.70
2022-11-11T18:08:12.891Z,17.30
2022-11-11T18:11:15.531Z,15.63
2022-11-11T18:14:18.006Z,12.00
2022-11-11T18:17:20.246Z,14.48
2022-11-11T18:20:22.783Z,14.70
2022-11-11T18:23:25.522Z,15.23
2022-11-11T18:26:28.051Z,16.50
2022-11-11T18:29:31.331Z,17.12
2022-11-11T18:32:34.013Z,15.27
2022-11-11T18:35:36.708Z,14.05
2022-11-11T18:38:39.652Z,15.27
2022-11-11T18:41:42.349Z,16.07
2022-11-11T18:44:44.771Z,17.73
2022-11-11T18:47:50.815Z,15.15
2022-11-11T18:50:55.271Z,13.77
2022-11-11T18:53:58.540Z,15.23
2022-11-11T18:57:03.466Z,14.53
2022-11-11T19:00:06.519Z,13.25
2022-11-11T19:03:10.232Z,15.07
2022-11-11T19:06:12.858Z,19.85
2022-11-11T19:09:15.708Z,14.57
2022-11-11T19:12:18.482Z,14.13
2022-11-11T19:15:20.963Z,13.00
2022-11-11T19:18:24.082Z,16.05
2022-11-11T19:21:29.798Z,16.65
2022-11-11T19:24:34.027Z,15.27
2022-11-11T19:27:36.337Z,15.57
2022-11-11T19:30:38.897Z,16.42
2022-11-11T19:33:42.458Z,16.80
2022-11-11T19:36:44.864Z,15.60
2022-11-11T19:39:47.451Z,16.73
2022-11-11T19:42:50.662Z,15.87
2022-11-11T19:45:53.200Z,15.15
2022-11-11T19:48:58.548Z,14.90
2022-11-11T19:52:01.262Z,14.80
2022-11-11T19:55:04.017Z,15.17
2022-11-11T19:58:06.711Z,14.80
2022-11-11T20:01:11.654Z,15.18
2022-11-11T20:04:14.161Z,14.93
2022-11-11T20:07:17.252Z,15.15
2022-11-11T20:10:20.508Z,18.80
2022-11-11T20:13:23.193Z,17.23
2022-11-11T20:16:26.305Z,15.90
2022-11-11T20:19:28.562Z,16.05
2022-11-11T20:22:32.090Z,16.00
2022-11-11T20:25:38.540Z,15.03
2022-11-11T20:28:42.028Z,14.97
2022-11-11T20:31:44.394Z,15.63
2022-11-11T20:34:46.669Z,16.95
2022-11-11T20:37:49.184Z,15.43
2022-11-11T20:41:04.899Z,16.90
2022-11-11T20:44:07.832Z,16.17
2022-11-11T20:47:10.224Z,17.30
2022-11-11T20:50:12.947Z,16.80
2022-11-11T20:53:15.699Z,16.90
2022-11-11T20:56:22.413Z,16.63
2022-11-11T20:59:27.074Z,15.03
2022-11-11T21:02:29.689Z,14.32
2022-11-11T21:05:31.990Z,15.80
2022-11-11T21:08:37.092Z,15.35
2022-11-11T21:11:40.251Z,16.50
2022-11-11T21:14:42.519Z,14.73
2022-11-11T21:17:44.819Z,15.48
2022-11-11T21:20:47.608Z,16.40
2022-11-11T21:23:54.785Z,16.00
2022-11-11T21:26:58.306Z,18.13
2022-11-11T21:30:00.584Z,17.53
2022-11-11T21:33:07.809Z,16.92
2022-11-11T21:36:13.363Z,16.70
2022-11-11T21:39:15.851Z,18.52
2022-11-11T21:42:18.507Z,18.97
2022-11-11T21:45:20.772Z,19.77
2022-11-11T21:48:27.030Z,19.75
2022-11-11T21:51:31.777Z,21.65
2022-11-11T21:54:33.995Z,19.02
2022-11-11T21:57:36.524Z,20.47
2022-11-11T22:00:38.768Z,20.13
2022-11-11T22:03:42.784Z,18.98
2022-11-11T22:06:45.083Z,19.65
2022-11-11T22:09:47.274Z,20.20
2022-11-11T22:12:49.427Z,21.20
2022-11-11T22:15:59.169Z,21.63
2022-11-11T22:19:07.018Z,23.67
2022-11-11T22:22:09.359Z,21.30
2022-11-11T22:25:11.475Z,20.23
2022-11-11T22:28:13.646Z,20.33
2022-11-11T22:31:23.978Z,19.27
2022-11-11T22:34:26.188Z,21.15
2022-11-11T22:37:28.446Z,21.52
2022-11-11T22:40:30.741Z,22.33
2022-11-11T22:43:58.553Z,21.77
2022-11-11T22:47:00.084Z,21.93
2022-11-11T22:50:02.330Z,22.73
2022-11-11T22:53:04.509Z,23.17
2022-11-11T22:56:09.329Z,19.35
2022-11-11T22:59:11.581Z,21.87
2022-11-11T23:02:14.074Z,25.40
2022-11-11T23:05:16.754Z,25.42
2022-11-11T23:08:18.998Z,31.12
2022-11-11T23:11:23.921Z,27.05
2022-11-11T23:14:26.071Z,27.67
2022-11-11T23:17:28.213Z,24.50
2022-11-11T23:20:30.383Z,23.73
2022-11-11T23:23:33.446Z,23.10
2022-11-11T23:26:35.688Z,20.77
2022-11-11T23:29:37.930Z,23.47
2022-11-11T23:32:40.245Z,21.03
2022-11-11T23:35:42.505Z,23.15
2022-11-11T23:38:44.918Z,24.02
2022-11-11T23:41:47.543Z,24.50
2022-11-11T23:44:49.727Z,22.90
2022-11-11T23:47:51.961Z,22.07
2022-11-11T23:50:54.692Z,24.35
2022-11-11T23:53:56.999Z,24.90
2022-11-11T23:56:59.240Z,23.75
